Alvwood, Minnesota
Current Conditions -  °F | °C
As of 12:34 AM on Thursday 23 Oct 2014 (Local Time) from KVWU Reporting Station
Overcast Overcast  
Wind Chill: 52°   Ceiling: 2200
Heat Index: 52°   Visibility: 10mi
Dew Point: 48°   Wind: 3mph
Humidity: 88%   Direction: 160°SSE
Pressure: 29.89"   Gusts: NA
Location:  47.7306°N, 94.3762°W
Report Text: KVWU 230534Z AUTO 16003KT 10SM BKN022 BKN043 OVC048 11/09 A2989 RMK AO2
Loading
Personal Weather Stations






























Interactive Weather Map
Tropical Storm Tracking
New forecast layout! Learn more

10-Day Weather Forecast

Advertisements
Track Severe Weather on mobile